Kalaeloa (John Rodgers Field) Airport Kapolei US
ICAO: PHJR
IATA:
Category: Medium
Scheduled Services:

Elevation: 30 ft
TransAlt. 18000 ft.

Airport Communications:
HONOLULU APP/DEP:118.3
ATIS:119.8
CLNC DEL:121.7
CTAF:132.6
GND:123.8
TWR:132.6

PHJR Zoom In..

Runways:

(A) RW 04L length 4500 ft width 200 ft
---- / hdg 44

(B) RW 04R length 8000 ft width 200 ft
---- / hdg 44

(C) RW 11 length 6000 ft width 200 ft
---- / hdg 108

(D) RW 22L length 8000 ft width 200 ft
---- / hdg 224

(E) RW 22R length 4500 ft width 200 ft
---- / hdg 224

(F) RW 29 length 6000 ft width 200 ft
---- / hdg 288

Location; PHJR
Day. 15 / Time. 21.53 Zulu
* Altimeter: 30.01
* Temperature: 31° c. 87.8°f.
* Wind from: 110° Speed 07 kn.
Dewpoint: 22° c.
Visibility: 10 Statute Miles.
Clouds: Broken 3700 ft.
Clouds: Overcast 4600 ft.

PHJR 152153Z 11007KT 080V140 10SM BKN037 OVC046 31/22 A3001 RMK AO2 SLP168 T03060217


Wind From 110°
Speed 07 kn.

 
 
jpsmedia.com for Web Design worldairports.se 2018   terms of use